Terminal Aerodrome Forecast
Issued by NWS

Home | Current Version | Previous Version | Text Only | Print | Product List | Glossary On
Versions: 1 2 3 4 5 6 7 8 9 10 11 12 13 14
000
FTUS45 KRIW 192100 AAA
TAFRKS
TAF AMD
KRKS 192152Z 1922/2018 26014G24KT P6SM SCT070 BKN150
     FM200200 22007KT P6SM SCT120=

USA.gov is the U.S. government's official web portal to all federal, state and local government web resources and services.